createdAt,value
2019-02-09T00:01:38.189Z,5.11
2019-02-09T00:04:07.608Z,5.08
2019-02-09T00:06:36.871Z,5.11
2019-02-09T00:09:09.559Z,5.17
2019-02-09T00:11:38.908Z,5.15
2019-02-09T00:14:08.182Z,5.17
2019-02-09T00:16:37.757Z,5.09
2019-02-09T00:19:07.115Z,5.11
2019-02-09T00:21:36.475Z,5.25
2019-02-09T00:24:06.566Z,5.19
2019-02-09T00:26:35.828Z,5.22
2019-02-09T00:29:05.178Z,5.22
2019-02-09T00:31:34.683Z,5.19
2019-02-09T00:34:04.195Z,5.24
2019-02-09T00:36:33.539Z,5.23
2019-02-09T00:39:02.977Z,5.26
2019-02-09T00:41:32.327Z,5.25
2019-02-09T00:44:01.672Z,5.23
2019-02-09T00:46:31.172Z,5.19
2019-02-09T00:49:00.457Z,5.28
2019-02-09T00:51:29.858Z,5.19
2019-02-09T00:53:59.463Z,5.21
2019-02-09T00:56:28.839Z,5.20
2019-02-09T00:58:58.143Z,5.28
2019-02-09T01:01:27.648Z,5.33
2019-02-09T01:03:56.921Z,5.38
2019-02-09T01:06:26.215Z,5.34
2019-02-09T01:08:55.723Z,5.35
2019-02-09T01:11:25.125Z,5.38
2019-02-09T01:13:54.443Z,5.33
2019-02-09T01:16:23.950Z,5.30
2019-02-09T01:18:53.274Z,5.33
2019-02-09T01:21:22.563Z,5.27
2019-02-09T01:23:52.014Z,5.33
2019-02-09T01:26:21.316Z,5.33
2019-02-09T01:28:50.627Z,5.39
2019-02-09T01:31:19.939Z,5.36
2019-02-09T01:33:49.246Z,5.39
2019-02-09T01:36:18.574Z,5.36
2019-02-09T01:38:48.201Z,5.36
2019-02-09T01:41:17.548Z,5.45
2019-02-09T01:43:46.847Z,5.45
2019-02-09T01:46:16.705Z,5.43
2019-02-09T01:48:46.015Z,5.41
2019-02-09T01:51:15.340Z,5.41
2019-02-09T01:53:44.839Z,5.48
2019-02-09T01:56:14.122Z,5.52
2019-02-09T01:58:43.460Z,5.53
2019-02-09T02:01:12.959Z,5.57
2019-02-09T02:03:42.262Z,5.54
2019-02-09T02:06:11.958Z,5.54
2019-02-09T02:08:41.444Z,5.56
2019-02-09T02:11:10.718Z,5.64
2019-02-09T02:13:40.166Z,5.59
2019-02-09T02:16:09.651Z,5.60
2019-02-09T02:18:38.919Z,5.66
2019-02-09T02:21:08.201Z,5.64
2019-02-09T02:23:37.632Z,5.63
2019-02-09T02:26:07.029Z,5.62
2019-02-09T02:28:36.332Z,5.64
2019-02-09T02:31:05.912Z,5.64
2019-02-09T02:33:35.207Z,5.51
2019-02-09T02:36:04.699Z,5.53
2019-02-09T02:38:34.109Z,5.47
2019-02-09T02:41:03.494Z,5.37
2019-02-09T02:43:32.834Z,5.30
2019-02-09T02:46:02.104Z,5.19
2019-02-09T02:48:31.469Z,5.14
2019-02-09T02:51:00.889Z,5.12
2019-02-09T02:53:30.422Z,5.06
2019-02-09T02:55:59.699Z,5.02
2019-02-09T02:58:29.018Z,4.94
2019-02-09T03:00:58.364Z,4.92
2019-02-09T03:03:27.688Z,4.96
2019-02-09T03:05:57.007Z,4.86
2019-02-09T03:08:26.550Z,4.90
2019-02-09T03:10:55.852Z,4.85
2019-02-09T03:13:25.164Z,4.83
2019-02-09T03:15:54.621Z,4.82
2019-02-09T03:18:23.927Z,4.76
2019-02-09T03:20:53.224Z,4.73
2019-02-09T03:23:22.616Z,4.75
2019-02-09T03:25:51.946Z,4.70
2019-02-09T03:28:21.229Z,4.65
2019-02-09T03:30:50.854Z,4.68
2019-02-09T03:33:20.124Z,4.68
2019-02-09T03:35:49.449Z,4.69
2019-02-09T03:38:18.782Z,4.66
2019-02-09T03:40:48.292Z,4.60
2019-02-09T03:43:17.574Z,4.56
2019-02-09T03:45:46.924Z,4.54
2019-02-09T03:48:16.284Z,4.63
2019-02-09T03:50:45.523Z,4.63
2019-02-09T03:53:14.917Z,4.60
2019-02-09T03:55:44.275Z,4.60
2019-02-09T03:58:13.539Z,4.66
2019-02-09T04:00:42.977Z,4.65
2019-02-09T04:03:12.325Z,4.65
2019-02-09T04:05:41.700Z,4.63
2019-02-09T04:08:11.223Z,4.60
2019-02-09T04:10:40.563Z,4.64
2019-02-09T04:13:09.846Z,4.63
2019-02-09T04:15:39.326Z,4.67
2019-02-09T04:18:08.718Z,4.66
2019-02-09T04:20:38.030Z,4.69
2019-02-09T04:23:07.560Z,4.67
2019-02-09T04:25:36.857Z,4.67
2019-02-09T04:28:06.186Z,4.68
2019-02-09T04:30:35.734Z,4.70
2019-02-09T04:33:05.087Z,4.60
2019-02-09T04:35:34.518Z,4.66
2019-02-09T04:38:04.060Z,4.63
2019-02-09T04:40:33.368Z,4.60
2019-02-09T04:43:02.811Z,4.64
2019-02-09T04:45:32.365Z,4.55
2019-02-09T04:48:01.792Z,4.56
2019-02-09T04:50:31.106Z,4.56
2019-02-09T04:53:00.592Z,4.50
2019-02-09T04:55:29.907Z,4.49
2019-02-09T04:57:59.386Z,4.47
2019-02-09T05:00:32.804Z,4.44
2019-02-09T05:03:02.344Z,4.44
2019-02-09T05:05:32.096Z,4.41
2019-02-09T05:08:01.596Z,4.49
2019-02-09T05:10:30.889Z,4.43
2019-02-09T05:13:00.189Z,4.35
2019-02-09T05:15:29.753Z,4.35
2019-02-09T05:17:59.065Z,4.29
2019-02-09T05:20:28.356Z,4.25
2019-02-09T05:22:57.810Z,4.31
2019-02-09T05:25:27.112Z,4.28
2019-02-09T05:27:56.434Z,4.25
2019-02-09T05:30:29.743Z,4.23
2019-02-09T05:33:00.731Z,4.26
2019-02-09T05:35:30.192Z,4.18
2019-02-09T05:37:59.628Z,4.17
2019-02-09T05:40:29.181Z,4.14
2019-02-09T05:42:58.483Z,4.13
2019-02-09T05:45:28.912Z,4.14
2019-02-09T05:47:58.373Z,4.12
2019-02-09T05:50:27.692Z,4.12
2019-02-09T05:52:57.066Z,4.11
2019-02-09T05:55:26.334Z,4.12
2019-02-09T05:57:55.740Z,4.15
2019-02-09T06:00:32.994Z,4.17
2019-02-09T06:03:02.298Z,4.19
2019-02-09T06:05:31.574Z,4.17
2019-02-09T06:08:00.922Z,4.16
2019-02-09T06:10:30.248Z,4.25
2019-02-09T06:12:59.568Z,4.27
2019-02-09T06:15:29.448Z,4.25
2019-02-09T06:17:58.754Z,4.23
2019-02-09T06:20:28.203Z,4.23
2019-02-09T06:22:57.635Z,4.25
2019-02-09T06:25:27.120Z,4.30
2019-02-09T06:27:56.559Z,4.29
2019-02-09T06:30:27.474Z,4.30
2019-02-09T06:32:56.889Z,4.32
2019-02-09T06:35:26.302Z,4.32
2019-02-09T06:37:55.870Z,4.31
2019-02-09T06:40:25.436Z,4.32
2019-02-09T06:42:54.696Z,4.36
2019-02-09T06:45:24.442Z,4.35
2019-02-09T06:47:53.759Z,4.34
2019-02-09T06:50:28.918Z,4.32
2019-02-09T06:52:58.290Z,4.30
2019-02-09T06:55:27.547Z,4.27
2019-02-09T06:57:57.134Z,4.36
2019-02-09T07:00:26.482Z,4.37
2019-02-09T07:02:55.759Z,4.38
2019-02-09T07:05:25.110Z,4.38
2019-02-09T07:07:54.432Z,4.40
2019-02-09T07:10:24.374Z,4.48
2019-02-09T07:12:53.874Z,4.51
2019-02-09T07:15:27.655Z,4.51
2019-02-09T07:17:57.269Z,4.49
2019-02-09T07:20:26.661Z,4.52
2019-02-09T07:22:56.173Z,4.56
2019-02-09T07:25:26.221Z,4.57
2019-02-09T07:27:55.601Z,4.60
2019-02-09T07:30:26.483Z,4.57
2019-02-09T07:32:56.558Z,4.64
2019-02-09T07:35:25.835Z,4.63
2019-02-09T07:37:55.457Z,4.66
2019-02-09T07:40:25.047Z,4.62
2019-02-09T07:42:54.772Z,4.68
2019-02-09T07:45:25.599Z,4.64
2019-02-09T07:47:55.321Z,4.63
2019-02-09T07:50:25.407Z,4.69
2019-02-09T07:52:54.914Z,4.65
2019-02-09T07:55:24.731Z,4.68
2019-02-09T07:57:54.103Z,4.66
2019-02-09T08:00:25.362Z,4.68
2019-02-09T08:02:55.017Z,4.73
2019-02-09T08:05:26.492Z,4.75
2019-02-09T08:07:55.789Z,4.77
2019-02-09T08:10:27.472Z,4.77
2019-02-09T08:12:56.884Z,4.74
2019-02-09T08:15:28.303Z,4.78
2019-02-09T08:17:57.707Z,4.78
2019-02-09T08:20:27.705Z,4.79
2019-02-09T08:22:58.306Z,4.80
2019-02-09T08:25:29.434Z,4.80
2019-02-09T08:27:59.175Z,4.78
2019-02-09T08:30:31.197Z,4.77
2019-02-09T08:33:00.658Z,4.81
2019-02-09T08:35:30.031Z,4.81
2019-02-09T08:37:59.361Z,4.86
2019-02-09T08:40:28.895Z,4.86
2019-02-09T08:42:58.217Z,4.88
2019-02-09T08:45:27.506Z,4.86
2019-02-09T08:47:56.907Z,4.93
2019-02-09T08:50:28.655Z,4.90
2019-02-09T08:52:58.148Z,4.93
2019-02-09T08:55:27.658Z,4.98
2019-02-09T08:57:57.076Z,4.92
2019-02-09T09:00:28.548Z,4.93
2019-02-09T09:02:58.209Z,4.90
2019-02-09T09:05:27.657Z,4.94
2019-02-09T09:07:57.326Z,4.89
2019-02-09T09:10:27.417Z,4.90
2019-02-09T09:12:56.942Z,4.94
2019-02-09T09:15:40.672Z,4.94
2019-02-09T09:18:10.124Z,5.03
2019-02-09T09:20:41.925Z,5.08
2019-02-09T09:23:11.258Z,5.08
2019-02-09T09:25:40.537Z,5.05
2019-02-09T09:28:10.985Z,5.15
2019-02-09T09:30:40.295Z,5.36
2019-02-09T09:33:09.666Z,5.51
2019-02-09T09:35:40.286Z,5.82
2019-02-09T09:38:09.638Z,6.00
2019-02-09T09:40:40.987Z,6.17
2019-02-09T09:43:10.805Z,6.31
2019-02-09T09:45:40.831Z,6.23
2019-02-09T09:48:12.442Z,6.20
2019-02-09T09:50:42.406Z,6.06
2019-02-09T09:53:11.768Z,6.18
2019-02-09T09:55:41.666Z,6.06
2019-02-09T09:58:11.444Z,6.06
2019-02-09T10:00:40.833Z,6.05
2019-02-09T10:03:10.179Z,6.01
2019-02-09T10:05:39.569Z,5.89
2019-02-09T10:08:09.052Z,5.86
2019-02-09T10:10:38.529Z,5.91
2019-02-09T10:13:07.851Z,5.93
2019-02-09T10:15:37.438Z,6.02
2019-02-09T10:18:07.042Z,6.16
2019-02-09T10:20:36.344Z,6.17
2019-02-09T10:23:05.874Z,6.30
2019-02-09T10:25:35.216Z,6.37
2019-02-09T10:28:05.074Z,6.52
2019-02-09T10:30:34.457Z,6.53
2019-02-09T10:33:03.733Z,6.52
2019-02-09T10:35:33.165Z,6.54
2019-02-09T10:38:02.566Z,6.68
2019-02-09T10:40:33.173Z,6.74
2019-02-09T10:43:03.454Z,6.71
2019-02-09T10:45:32.741Z,6.76
2019-02-09T10:48:02.557Z,6.79
2019-02-09T10:50:36.697Z,7.04
2019-02-09T10:53:06.454Z,7.34
2019-02-09T10:55:35.899Z,7.48
2019-02-09T10:58:05.904Z,7.60
2019-02-09T11:00:44.259Z,7.61
2019-02-09T11:03:13.512Z,7.69
2019-02-09T11:05:42.839Z,7.88
2019-02-09T11:08:12.401Z,8.30
2019-02-09T11:10:41.928Z,8.39
2019-02-09T11:13:11.457Z,8.94
2019-02-09T11:15:41.066Z,8.75
2019-02-09T11:18:10.320Z,8.51
2019-02-09T11:20:39.587Z,8.26
2019-02-09T11:23:09.103Z,8.02
2019-02-09T11:25:38.418Z,7.95
2019-02-09T11:28:07.960Z,7.79
2019-02-09T11:30:37.321Z,7.71
2019-02-09T11:33:06.639Z,7.59
2019-02-09T11:35:35.917Z,7.70
2019-02-09T11:38:06.097Z,7.96
2019-02-09T11:40:35.429Z,8.24
2019-02-09T11:43:05.438Z,8.46
2019-02-09T11:45:35.335Z,8.33
2019-02-09T11:48:04.909Z,8.15
2019-02-09T11:50:34.364Z,7.96
2019-02-09T11:53:04.149Z,7.81
2019-02-09T11:55:33.463Z,7.74
2019-02-09T11:58:02.714Z,7.69
2019-02-09T12:00:34.406Z,7.61
2019-02-09T12:03:13.880Z,7.59
2019-02-09T12:05:35.467Z,7.39
2019-02-09T12:08:05.602Z,7.58
2019-02-09T12:10:34.873Z,7.87
2019-02-09T12:13:04.393Z,7.96
2019-02-09T12:15:34.157Z,7.94
2019-02-09T12:18:03.545Z,7.88
2019-02-09T12:20:32.878Z,7.82
2019-02-09T12:23:02.216Z,7.74
2019-02-09T12:25:32.947Z,7.77
2019-02-09T12:28:02.241Z,7.76
2019-02-09T12:30:33.639Z,7.69
2019-02-09T12:33:03.193Z,7.63
2019-02-09T12:35:32.503Z,7.66
2019-02-09T12:38:01.903Z,7.87
2019-02-09T12:40:32.572Z,8.00
2019-02-09T12:43:01.855Z,7.83
2019-02-09T12:45:32.165Z,7.53
2019-02-09T12:48:01.437Z,7.46
2019-02-09T12:50:31.053Z,7.24
2019-02-09T12:53:00.528Z,7.12
2019-02-09T12:55:30.408Z,7.00
2019-02-09T12:57:59.786Z,6.89
2019-02-09T13:00:33.699Z,6.82
2019-02-09T13:03:11.567Z,6.72
2019-02-09T13:05:41.119Z,6.58
2019-02-09T13:08:10.416Z,6.47
2019-02-09T13:10:39.726Z,6.51
2019-02-09T13:13:09.078Z,6.47
2019-02-09T13:15:38.357Z,6.48
2019-02-09T13:18:07.836Z,6.43
2019-02-09T13:20:37.284Z,6.45
2019-02-09T13:23:07.992Z,6.51
2019-02-09T13:25:37.292Z,6.64
2019-02-09T13:28:07.077Z,6.70
2019-02-09T13:30:37.005Z,6.57
2019-02-09T13:33:06.617Z,6.47
2019-02-09T13:35:35.877Z,6.48
2019-02-09T13:38:05.313Z,6.52
2019-02-09T13:40:34.716Z,6.61
2019-02-09T13:43:04.320Z,6.61
2019-02-09T13:45:35.891Z,6.46
2019-02-09T13:48:06.403Z,6.47
2019-02-09T13:50:35.998Z,6.64
2019-02-09T13:53:06.467Z,6.67
2019-02-09T13:55:36.006Z,6.57
2019-02-09T13:58:05.562Z,6.51
2019-02-09T14:00:35.077Z,6.43
2019-02-09T14:03:04.806Z,6.35
2019-02-09T14:05:34.181Z,6.29
2019-02-09T14:08:03.617Z,6.30
2019-02-09T14:10:33.183Z,6.23
2019-02-09T14:13:02.558Z,6.21
2019-02-09T14:15:32.556Z,6.19
2019-02-09T14:18:03.154Z,6.13
2019-02-09T14:20:32.399Z,6.09
2019-02-09T14:23:01.789Z,5.99
2019-02-09T14:25:31.407Z,5.99
2019-02-09T14:28:02.197Z,5.91
2019-02-09T14:30:33.134Z,5.80
2019-02-09T14:33:04.138Z,5.73
2019-02-09T14:35:33.521Z,5.59
2019-02-09T14:38:03.060Z,5.49
2019-02-09T14:40:32.990Z,5.48
2019-02-09T14:43:02.683Z,5.42
2019-02-09T14:45:34.252Z,5.48
2019-02-09T14:48:03.612Z,5.51
2019-02-09T14:50:32.995Z,5.64
2019-02-09T14:53:02.626Z,5.80
2019-02-09T14:55:33.438Z,5.84
2019-02-09T14:58:03.428Z,5.86
2019-02-09T15:00:38.337Z,5.92
2019-02-09T15:03:08.660Z,5.90
2019-02-09T15:05:37.966Z,5.89
2019-02-09T15:08:07.643Z,5.88
2019-02-09T15:10:37.135Z,5.91
2019-02-09T15:13:07.449Z,5.94
2019-02-09T15:15:43.259Z,5.94
2019-02-09T15:18:12.629Z,5.92
2019-02-09T15:20:45.666Z,5.88
2019-02-09T15:23:15.030Z,5.85
2019-02-09T15:25:44.324Z,5.83
2019-02-09T15:28:13.702Z,5.76
2019-02-09T15:30:43.038Z,5.73
2019-02-09T15:33:12.272Z,5.66
2019-02-09T15:35:42.120Z,5.59
2019-02-09T15:38:11.479Z,5.58
2019-02-09T15:40:40.877Z,5.61
2019-02-09T15:43:10.276Z,5.53
2019-02-09T15:45:39.530Z,5.42
2019-02-09T15:48:08.825Z,5.40
2019-02-09T15:50:38.165Z,5.39
2019-02-09T15:53:07.437Z,5.39
2019-02-09T15:55:36.789Z,5.38
2019-02-09T15:58:06.603Z,5.39
2019-02-09T16:00:36.027Z,5.37
2019-02-09T16:03:05.573Z,5.31
2019-02-09T16:05:35.106Z,5.29
2019-02-09T16:08:04.528Z,5.26
2019-02-09T16:10:33.948Z,5.19
2019-02-09T16:13:03.297Z,5.11
2019-02-09T16:15:32.823Z,5.08
2019-02-09T16:18:02.114Z,5.09
2019-02-09T16:20:31.567Z,5.03
2019-02-09T16:23:00.864Z,5.04
2019-02-09T16:25:30.275Z,5.00
2019-02-09T16:28:00.172Z,4.95
2019-02-09T16:30:29.777Z,4.98
2019-02-09T16:32:59.140Z,4.93
2019-02-09T16:35:28.711Z,4.97
2019-02-09T16:37:58.020Z,4.93
2019-02-09T16:40:28.370Z,4.97
2019-02-09T16:42:58.120Z,4.93
2019-02-09T16:45:29.380Z,4.93
2019-02-09T16:47:58.723Z,5.01
2019-02-09T16:50:28.304Z,4.99
2019-02-09T16:52:57.667Z,4.97
2019-02-09T16:55:27.299Z,4.98
2019-02-09T16:57:56.715Z,5.00
2019-02-09T17:00:34.930Z,5.02
2019-02-09T17:03:05.551Z,4.94
2019-02-09T17:05:34.960Z,4.93
2019-02-09T17:08:04.689Z,4.96
2019-02-09T17:10:34.051Z,4.90
2019-02-09T17:13:03.435Z,4.94
2019-02-09T17:15:32.694Z,4.93
2019-02-09T17:18:02.284Z,4.93
2019-02-09T17:20:31.614Z,4.93
2019-02-09T17:23:00.945Z,4.86
2019-02-09T17:25:30.498Z,4.89
2019-02-09T17:27:59.865Z,4.87
2019-02-09T17:30:30.124Z,4.90
2019-02-09T17:32:59.681Z,4.95
2019-02-09T17:35:29.016Z,4.89
2019-02-09T17:37:58.520Z,4.93
2019-02-09T17:40:33.140Z,4.95
2019-02-09T17:43:02.425Z,4.95
2019-02-09T17:45:34.461Z,4.92
2019-02-09T17:48:03.820Z,4.94
2019-02-09T17:50:33.079Z,5.00
2019-02-09T17:53:02.506Z,4.99
2019-02-09T17:55:31.920Z,4.98
2019-02-09T17:58:01.301Z,4.99
2019-02-09T18:00:39.428Z,5.02
2019-02-09T18:03:08.751Z,4.98
2019-02-09T18:05:38.076Z,5.00
2019-02-09T18:08:08.090Z,5.00
2019-02-09T18:10:39.383Z,4.95
2019-02-09T18:13:09.069Z,5.01
2019-02-09T18:15:38.346Z,5.02
2019-02-09T18:18:07.912Z,5.09
2019-02-09T18:20:37.293Z,5.07
2019-02-09T18:23:06.717Z,5.14
2019-02-09T18:25:36.078Z,5.12
2019-02-09T18:28:05.816Z,5.09
2019-02-09T18:30:35.290Z,5.07
2019-02-09T18:33:04.813Z,5.12
2019-02-09T18:35:34.378Z,5.15
2019-02-09T18:38:03.663Z,5.19
2019-02-09T18:40:33.019Z,5.21
2019-02-09T18:43:02.343Z,5.20
2019-02-09T18:45:31.845Z,5.26
2019-02-09T18:48:01.158Z,5.24
2019-02-09T18:50:31.072Z,5.26
2019-02-09T18:53:00.804Z,5.22
2019-02-09T18:55:30.697Z,5.23
2019-02-09T18:58:00.090Z,5.25
2019-02-09T19:00:31.225Z,5.32
2019-02-09T19:03:01.236Z,5.35
2019-02-09T19:05:30.613Z,5.37
2019-02-09T19:07:59.991Z,5.38
2019-02-09T19:10:30.153Z,5.39
2019-02-09T19:12:59.542Z,5.41
2019-02-09T19:15:29.205Z,5.41
2019-02-09T19:17:58.830Z,5.44
2019-02-09T19:20:33.218Z,5.40
2019-02-09T19:23:02.591Z,5.40
2019-02-09T19:25:31.937Z,5.40
2019-02-09T19:28:01.305Z,5.45
2019-02-09T19:30:30.644Z,5.49
2019-02-09T19:32:59.989Z,5.51
2019-02-09T19:35:29.300Z,5.54
2019-02-09T19:37:58.564Z,5.49
2019-02-09T19:40:27.876Z,5.57
2019-02-09T19:42:57.207Z,5.50
2019-02-09T19:45:31.499Z,5.50
2019-02-09T19:48:00.883Z,5.54
2019-02-09T19:50:30.180Z,5.53
2019-02-09T19:52:59.676Z,5.54
2019-02-09T19:55:29.692Z,5.55
2019-02-09T19:57:58.980Z,5.57
2019-02-09T20:00:33.300Z,5.55
2019-02-09T20:03:02.799Z,5.52
2019-02-09T20:05:32.137Z,5.43
2019-02-09T20:08:01.676Z,5.41
2019-02-09T20:10:33.142Z,5.39
2019-02-09T20:13:02.770Z,5.36
2019-02-09T20:15:32.099Z,5.44
2019-02-09T20:18:01.427Z,5.45
2019-02-09T20:20:30.875Z,5.44
2019-02-09T20:23:00.231Z,5.44
2019-02-09T20:25:29.537Z,5.43
2019-02-09T20:27:58.861Z,5.43
2019-02-09T20:30:30.122Z,5.46
2019-02-09T20:32:59.393Z,5.50
2019-02-09T20:35:29.252Z,5.53
2019-02-09T20:37:58.663Z,5.44
2019-02-09T20:40:39.491Z,5.43
2019-02-09T20:43:10.337Z,5.43
2019-02-09T20:45:39.596Z,5.41
2019-02-09T20:48:09.019Z,5.40
2019-02-09T20:50:38.253Z,5.51
2019-02-09T20:53:07.905Z,5.48
2019-02-09T20:55:37.517Z,5.50
2019-02-09T20:58:08.712Z,5.48
2019-02-09T21:00:38.115Z,5.48
2019-02-09T21:03:07.583Z,5.53
2019-02-09T21:05:37.158Z,5.51
2019-02-09T21:08:07.740Z,5.51
2019-02-09T21:10:37.340Z,5.56
2019-02-09T21:13:07.296Z,5.53
2019-02-09T21:15:36.714Z,5.50
2019-02-09T21:18:07.559Z,5.61
2019-02-09T21:20:36.928Z,5.55
2019-02-09T21:23:08.272Z,5.57
2019-02-09T21:25:39.500Z,5.56
2019-02-09T21:28:08.907Z,5.54
2019-02-09T21:30:38.234Z,5.56
2019-02-09T21:33:07.592Z,5.60
2019-02-09T21:35:43.819Z,5.59
2019-02-09T21:38:08.427Z,5.62
2019-02-09T21:41:13.440Z,5.66
2019-02-09T21:43:42.913Z,5.68
2019-02-09T21:46:12.276Z,5.71
2019-02-09T21:48:41.593Z,5.75
2019-02-09T21:51:10.959Z,5.75
2019-02-09T21:53:40.305Z,5.81
2019-02-09T21:56:09.719Z,5.72
2019-02-09T21:58:38.966Z,5.76
2019-02-09T22:01:08.211Z,5.74
2019-02-09T22:03:37.577Z,5.65
2019-02-09T22:06:06.937Z,5.64
2019-02-09T22:08:36.274Z,5.60
2019-02-09T22:11:05.613Z,5.65
2019-02-09T22:13:35.047Z,5.66
2019-02-09T22:16:04.349Z,5.62
2019-02-09T22:18:33.806Z,5.63
2019-02-09T22:21:03.338Z,5.63
2019-02-09T22:23:32.612Z,5.69
2019-02-09T22:26:01.972Z,5.64
2019-02-09T22:28:31.542Z,5.62
2019-02-09T22:31:00.948Z,5.62
2019-02-09T22:33:30.253Z,5.63
2019-02-09T22:36:00.117Z,5.64
2019-02-09T22:38:29.657Z,5.66
2019-02-09T22:40:58.998Z,5.68
2019-02-09T22:43:28.316Z,5.67
2019-02-09T22:45:57.686Z,5.66
2019-02-09T22:48:27.020Z,5.68
2019-02-09T22:50:56.314Z,5.65
2019-02-09T22:53:25.607Z,5.66
2019-02-09T22:55:54.954Z,5.67
2019-02-09T22:58:24.306Z,5.71
2019-02-09T23:01:27.300Z,5.77
2019-02-09T23:04:05.352Z,5.78
2019-02-09T23:07:05.752Z,5.78
2019-02-09T23:09:35.534Z,5.81
2019-02-09T23:12:04.950Z,5.86
2019-02-09T23:14:34.303Z,5.89
2019-02-09T23:17:03.824Z,5.81
2019-02-09T23:19:33.194Z,5.85
2019-02-09T23:22:02.562Z,5.73
2019-02-09T23:24:31.841Z,5.74
2019-02-09T23:27:01.089Z,5.72
2019-02-09T23:29:30.465Z,5.71
2019-02-09T23:31:59.736Z,5.68
2019-02-09T23:34:29.169Z,5.72
2019-02-09T23:36:58.545Z,5.66
2019-02-09T23:39:28.086Z,5.63
2019-02-09T23:41:57.479Z,5.64
2019-02-09T23:44:26.859Z,5.65
2019-02-09T23:46:56.241Z,5.75
2019-02-09T23:49:25.559Z,5.72
2019-02-09T23:51:54.891Z,5.67
2019-02-09T23:54:24.149Z,5.66
2019-02-09T23:56:53.840Z,5.56
2019-02-09T23:59:23.192Z,5.46
